createdAt,value
2023-04-11T00:00:19.950Z,15.12
2023-04-11T00:02:47.291Z,15.10
2023-04-11T00:05:14.383Z,15.12
2023-04-11T00:07:41.269Z,15.12
2023-04-11T00:10:09.451Z,15.10
2023-04-11T00:12:36.458Z,15.10
2023-04-11T00:15:06.543Z,15.10
2023-04-11T00:17:33.474Z,15.07
2023-04-11T00:20:07.301Z,15.10
2023-04-11T00:22:34.579Z,15.13
2023-04-11T00:25:01.557Z,15.18
2023-04-11T00:27:29.016Z,15.21
2023-04-11T00:29:57.880Z,15.23
2023-04-11T00:32:26.197Z,15.19
2023-04-11T00:34:53.088Z,15.15
2023-04-11T00:37:22.502Z,15.08
2023-04-11T00:39:54.155Z,15.05
2023-04-11T00:42:21.258Z,15.02
2023-04-11T00:44:48.197Z,15.09
2023-04-11T00:47:15.579Z,15.02
2023-04-11T00:49:44.100Z,15.00
2023-04-11T00:52:12.735Z,14.97
2023-04-11T00:54:40.210Z,14.91
2023-04-11T00:57:08.452Z,14.89
2023-04-11T00:59:35.708Z,14.96
2023-04-11T01:02:02.736Z,14.94
2023-04-11T01:04:29.952Z,14.88
2023-04-11T01:07:05.778Z,14.81
2023-04-11T01:09:35.293Z,14.84
2023-04-11T01:12:04.651Z,14.86
2023-04-11T01:14:31.682Z,14.88
2023-04-11T01:17:02.103Z,14.88
2023-04-11T01:19:30.709Z,14.88
2023-04-11T01:22:01.752Z,14.88
2023-04-11T01:24:30.688Z,14.91
2023-04-11T01:26:57.976Z,14.96
2023-04-11T01:29:24.968Z,14.93
2023-04-11T01:31:52.274Z,15.08
2023-04-11T01:34:21.379Z,15.18
2023-04-11T01:36:48.515Z,15.14
2023-04-11T01:39:15.611Z,15.06
2023-04-11T01:41:45.697Z,14.91
2023-04-11T01:44:13.631Z,14.80
2023-04-11T01:46:40.882Z,14.67
2023-04-11T01:49:08.203Z,14.52
2023-04-11T01:51:36.085Z,14.42
2023-04-11T01:54:03.300Z,14.35
2023-04-11T01:56:30.229Z,14.28
2023-04-11T01:58:59.141Z,14.22
2023-04-11T02:01:26.635Z,14.18
2023-04-11T02:03:53.769Z,14.11
2023-04-11T02:06:20.725Z,14.06
2023-04-11T02:08:47.603Z,14.05
2023-04-11T02:11:14.503Z,14.07
2023-04-11T02:13:41.396Z,14.09
2023-04-11T02:16:17.847Z,14.09
2023-04-11T02:18:46.291Z,14.08
2023-04-11T02:21:13.379Z,14.09
2023-04-11T02:23:40.382Z,14.04
2023-04-11T02:26:07.332Z,14.02
2023-04-11T02:28:34.490Z,13.94
2023-04-11T02:31:02.208Z,13.88
2023-04-11T02:33:33.459Z,13.77
2023-04-11T02:36:00.570Z,13.76
2023-04-11T02:38:27.538Z,13.71
2023-04-11T02:40:54.441Z,13.63
2023-04-11T02:43:21.360Z,13.54
2023-04-11T02:45:48.401Z,13.52
2023-04-11T02:48:15.826Z,13.44
2023-04-11T02:50:44.123Z,13.37
2023-04-11T02:53:11.300Z,13.29
2023-04-11T02:55:38.183Z,13.24
2023-04-11T02:58:05.656Z,13.17
2023-04-11T03:00:32.632Z,13.11
2023-04-11T03:02:59.554Z,13.09
2023-04-11T03:05:26.499Z,13.04
2023-04-11T03:07:54.742Z,13.06
2023-04-11T03:10:21.669Z,13.04
2023-04-11T03:12:48.637Z,13.02
2023-04-11T03:15:17.570Z,12.93
2023-04-11T03:17:44.503Z,12.80
2023-04-11T03:20:19.424Z,12.83
2023-04-11T03:22:46.564Z,12.88
2023-04-11T03:25:15.073Z,12.93
2023-04-11T03:27:42.074Z,12.89
2023-04-11T03:30:10.337Z,12.87
2023-04-11T03:32:37.337Z,12.81
2023-04-11T03:35:05.326Z,12.83
2023-04-11T03:37:32.308Z,12.77
2023-04-11T03:39:59.141Z,12.76
2023-04-11T03:42:27.502Z,12.80
2023-04-11T03:44:54.346Z,12.86
2023-04-11T03:47:21.224Z,12.92
2023-04-11T03:49:48.093Z,13.00
2023-04-11T03:52:17.320Z,13.07
2023-04-11T03:54:46.386Z,13.13
2023-04-11T03:57:14.569Z,13.22
2023-04-11T03:59:42.838Z,13.23
2023-04-11T04:02:09.993Z,13.21
2023-04-11T04:04:38.377Z,13.27
2023-04-11T04:07:05.396Z,13.35
2023-04-11T04:09:32.273Z,13.43
2023-04-11T04:11:59.126Z,13.47
2023-04-11T04:14:26.253Z,13.53
2023-04-11T04:16:54.463Z,13.58
2023-04-11T04:19:21.413Z,13.58
2023-04-11T04:21:50.000Z,13.58
2023-04-11T04:24:17.374Z,13.55
2023-04-11T04:26:45.950Z,13.52
2023-04-11T04:29:12.827Z,13.50
2023-04-11T04:31:41.017Z,13.49
2023-04-11T04:34:09.834Z,13.54
2023-04-11T04:36:46.311Z,13.60
2023-04-11T04:39:17.419Z,13.65
2023-04-11T04:41:45.822Z,13.68
2023-04-11T04:44:13.018Z,13.70
2023-04-11T04:46:39.965Z,13.74
2023-04-11T04:49:09.228Z,13.74
2023-04-11T04:51:36.620Z,13.77
2023-04-11T04:54:05.132Z,13.78
2023-04-11T04:56:32.547Z,13.74
2023-04-11T04:58:59.607Z,13.70
2023-04-11T05:01:26.631Z,13.68
2023-04-11T05:03:59.048Z,13.64
2023-04-11T05:06:31.532Z,13.61
2023-04-11T05:09:00.995Z,13.58
2023-04-11T05:11:29.088Z,13.59
2023-04-11T05:13:56.270Z,13.54
2023-04-11T05:16:23.323Z,13.50
2023-04-11T05:18:50.400Z,13.47
2023-04-11T05:21:17.489Z,13.45
2023-04-11T05:23:45.894Z,13.43
2023-04-11T05:26:13.128Z,13.40
2023-04-11T05:28:42.730Z,13.40
2023-04-11T05:31:09.966Z,13.40
2023-04-11T05:33:38.279Z,13.39
2023-04-11T05:36:06.638Z,13.43
2023-04-11T05:38:33.663Z,13.47
2023-04-11T05:41:01.893Z,13.51
2023-04-11T05:43:28.810Z,13.55
2023-04-11T05:45:55.882Z,13.58
2023-04-11T05:48:23.860Z,13.60
2023-04-11T05:50:51.281Z,13.56
2023-04-11T05:53:18.441Z,13.60
2023-04-11T05:55:45.810Z,13.65
2023-04-11T05:58:14.384Z,13.74
2023-04-11T06:00:41.400Z,13.75
2023-04-11T06:03:09.298Z,13.75
2023-04-11T06:05:36.756Z,13.73
2023-04-11T06:08:06.632Z,13.71
2023-04-11T06:10:35.280Z,13.64
2023-04-11T06:13:06.901Z,13.62
2023-04-11T06:15:35.360Z,13.62
2023-04-11T06:18:02.270Z,13.65
2023-04-11T06:20:29.920Z,13.72
2023-04-11T06:22:57.115Z,13.74
2023-04-11T06:25:24.721Z,13.78
2023-04-11T06:27:51.721Z,13.85
2023-04-11T06:30:18.743Z,13.89
2023-04-11T06:32:47.185Z,13.92
2023-04-11T06:35:14.205Z,13.94
2023-04-11T06:37:42.308Z,14.00
2023-04-11T06:40:10.505Z,14.10
2023-04-11T06:42:37.410Z,14.17
2023-04-11T06:45:06.291Z,14.23
2023-04-11T06:47:33.311Z,14.25
2023-04-11T06:50:01.608Z,14.28
2023-04-11T06:52:28.532Z,14.30
2023-04-11T06:54:55.472Z,14.32
2023-04-11T06:57:22.382Z,14.36
2023-04-11T06:59:49.236Z,14.42
2023-04-11T07:02:16.740Z,14.43
2023-04-11T07:04:43.957Z,14.47
2023-04-11T07:07:12.434Z,14.50
2023-04-11T07:09:39.297Z,14.50
2023-04-11T07:12:06.451Z,14.50
2023-04-11T07:14:33.385Z,14.51
2023-04-11T07:17:01.321Z,14.55
2023-04-11T07:19:28.687Z,14.58
2023-04-11T07:21:56.885Z,14.62
2023-04-11T07:24:25.940Z,14.67
2023-04-11T07:26:54.300Z,14.75
2023-04-11T07:29:21.397Z,14.85
2023-04-11T07:31:49.469Z,14.99
2023-04-11T07:34:16.589Z,15.10
2023-04-11T07:36:43.504Z,15.18
2023-04-11T07:39:12.125Z,15.28
2023-04-11T07:41:40.778Z,15.55
2023-04-11T07:44:09.353Z,15.69
2023-04-11T07:46:36.254Z,15.71
2023-04-11T07:49:03.216Z,15.72
2023-04-11T07:51:31.116Z,15.68
2023-04-11T07:53:58.224Z,15.59
2023-04-11T07:56:25.582Z,15.50
2023-04-11T07:58:54.227Z,15.38
2023-04-11T08:01:22.661Z,15.28
2023-04-11T08:03:49.941Z,15.23
2023-04-11T08:06:17.002Z,15.24
2023-04-11T08:08:44.235Z,15.31
2023-04-11T08:11:11.126Z,15.40
2023-04-11T08:13:39.456Z,15.52
2023-04-11T08:16:11.739Z,15.59
2023-04-11T08:18:42.194Z,15.63
2023-04-11T08:21:11.430Z,15.65
2023-04-11T08:23:39.678Z,15.66
2023-04-11T08:26:07.727Z,15.69
2023-04-11T08:28:35.765Z,15.72
2023-04-11T08:31:03.974Z,15.72
2023-04-11T08:33:33.604Z,15.70
2023-04-11T08:36:00.539Z,15.71
2023-04-11T08:38:27.610Z,15.68
2023-04-11T08:40:55.333Z,15.66
2023-04-11T08:43:22.357Z,15.66
2023-04-11T08:45:49.531Z,15.73
2023-04-11T08:48:16.638Z,15.78
2023-04-11T08:50:45.123Z,15.87
2023-04-11T08:53:14.382Z,15.91
2023-04-11T08:55:48.303Z,15.88
2023-04-11T08:58:15.462Z,15.81
2023-04-11T09:00:42.457Z,15.77
2023-04-11T09:03:12.845Z,15.83
2023-04-11T09:05:42.551Z,15.95
2023-04-11T09:08:13.403Z,16.21
2023-04-11T09:10:45.219Z,16.62
2023-04-11T09:13:23.574Z,16.81
2023-04-11T09:16:06.120Z,16.90
2023-04-11T09:18:36.495Z,16.89
2023-04-11T09:21:05.947Z,16.81
2023-04-11T09:23:34.321Z,16.66
2023-04-11T09:26:01.914Z,16.48
2023-04-11T09:28:39.632Z,16.28
2023-04-11T09:31:08.417Z,16.19
2023-04-11T09:33:35.392Z,16.43
2023-04-11T09:36:19.702Z,16.87
2023-04-11T09:38:48.149Z,17.74
2023-04-11T09:41:16.170Z,19.23
2023-04-11T09:43:51.503Z,20.23
2023-04-11T09:46:20.977Z,20.61
2023-04-11T09:48:49.412Z,20.76
2023-04-11T09:51:34.426Z,21.08
2023-04-11T09:54:06.396Z,21.80
2023-04-11T09:56:37.040Z,21.65
2023-04-11T09:59:05.207Z,21.35
2023-04-11T10:01:32.534Z,21.31
2023-04-11T10:04:01.231Z,20.86
2023-04-11T10:06:33.855Z,20.15
2023-04-11T10:09:12.120Z,19.24
2023-04-11T10:11:42.805Z,18.52
2023-04-11T10:14:17.266Z,17.95
2023-04-11T10:17:17.051Z,17.42
2023-04-11T10:19:46.211Z,17.45
2023-04-11T10:22:58.913Z,18.12
2023-04-11T10:25:31.300Z,18.41
2023-04-11T10:28:04.678Z,18.80
2023-04-11T10:31:05.035Z,18.75
2023-04-11T10:33:33.942Z,18.53
2023-04-11T10:36:04.974Z,18.25
2023-04-11T10:38:49.803Z,17.89
2023-04-11T10:41:28.672Z,17.55
2023-04-11T10:44:18.148Z,17.62
2023-04-11T10:46:51.625Z,18.69
2023-04-11T10:49:37.440Z,20.01
2023-04-11T10:52:21.317Z,21.58
2023-04-11T10:54:50.530Z,22.86
2023-04-11T10:57:20.004Z,23.80
2023-04-11T11:00:00.589Z,24.71
2023-04-11T11:02:38.779Z,25.55
2023-04-11T11:05:24.558Z,26.16
2023-04-11T11:07:53.469Z,26.42
2023-04-11T11:10:41.966Z,26.79
2023-04-11T11:13:11.112Z,27.37
2023-04-11T11:15:39.246Z,27.74
2023-04-11T11:18:09.883Z,27.48
2023-04-11T11:20:37.984Z,26.32
2023-04-11T11:23:06.986Z,25.07
2023-04-11T11:25:34.487Z,24.67
2023-04-11T11:28:04.574Z,24.70
2023-04-11T11:30:33.931Z,24.87
2023-04-11T11:33:15.939Z,24.71
2023-04-11T11:35:46.416Z,24.16
2023-04-11T11:38:13.627Z,23.54
2023-04-11T11:40:40.790Z,22.89
2023-04-11T11:43:07.946Z,22.19
2023-04-11T11:45:36.346Z,21.56
2023-04-11T11:48:03.598Z,20.95
2023-04-11T11:50:32.970Z,20.38
2023-04-11T11:53:15.810Z,19.81
2023-04-11T11:55:43.501Z,19.49
2023-04-11T11:58:11.112Z,19.36
2023-04-11T12:00:40.954Z,19.47
2023-04-11T12:03:11.933Z,19.97
2023-04-11T12:05:39.141Z,20.81
2023-04-11T12:08:07.397Z,21.63
2023-04-11T12:10:40.906Z,22.40
2023-04-11T12:13:16.744Z,23.04
2023-04-11T12:15:50.005Z,23.21
2023-04-11T12:18:20.128Z,23.28
2023-04-11T12:20:47.212Z,23.16
2023-04-11T12:23:14.391Z,22.89
2023-04-11T12:25:41.740Z,22.61
2023-04-11T12:28:09.931Z,22.30
2023-04-11T12:30:37.710Z,21.85
2023-04-11T12:33:06.262Z,21.21
2023-04-11T12:35:33.779Z,20.55
2023-04-11T12:38:00.755Z,20.00
2023-04-11T12:40:29.580Z,19.53
2023-04-11T12:42:57.543Z,19.18
2023-04-11T12:45:25.832Z,19.04
2023-04-11T12:47:54.291Z,19.02
2023-04-11T12:50:23.880Z,19.01
2023-04-11T12:52:51.364Z,18.92
2023-04-11T12:55:18.639Z,18.71
2023-04-11T12:57:45.591Z,18.38
2023-04-11T13:00:14.707Z,18.07
2023-04-11T13:02:44.528Z,17.70
2023-04-11T13:05:15.072Z,17.33
2023-04-11T13:07:46.235Z,16.96
2023-04-11T13:10:14.386Z,16.68
2023-04-11T13:12:44.251Z,16.43
2023-04-11T13:15:14.104Z,16.19
2023-04-11T13:17:41.210Z,15.97
2023-04-11T13:20:10.938Z,15.74
2023-04-11T13:22:38.567Z,15.57
2023-04-11T13:25:08.304Z,15.53
2023-04-11T13:27:36.190Z,15.60
2023-04-11T13:30:04.879Z,15.77
2023-04-11T13:32:32.127Z,16.10
2023-04-11T13:34:59.136Z,16.46
2023-04-11T13:37:26.181Z,16.74
2023-04-11T13:39:53.316Z,16.98
2023-04-11T13:42:24.154Z,17.18
2023-04-11T13:44:51.146Z,17.49
2023-04-11T13:47:18.058Z,17.98
2023-04-11T13:49:45.020Z,18.45
2023-04-11T13:52:12.004Z,18.96
2023-04-11T13:54:39.093Z,19.40
2023-04-11T13:57:07.847Z,19.94
2023-04-11T13:59:36.405Z,20.46
2023-04-11T14:02:03.547Z,20.66
2023-04-11T14:04:31.030Z,20.71
2023-04-11T14:06:58.113Z,20.85
2023-04-11T14:09:27.991Z,20.86
2023-04-11T14:11:56.710Z,20.47
2023-04-11T14:14:23.718Z,20.11
2023-04-11T14:16:52.128Z,20.33
2023-04-11T14:19:19.238Z,20.79
2023-04-11T14:21:46.450Z,21.34
2023-04-11T14:24:13.374Z,21.40
2023-04-11T14:26:40.598Z,21.24
2023-04-11T14:29:07.864Z,21.39
2023-04-11T14:31:35.894Z,21.67
2023-04-11T14:34:04.630Z,21.89
2023-04-11T14:36:31.843Z,22.17
2023-04-11T14:38:58.955Z,22.23
2023-04-11T14:41:26.115Z,22.02
2023-04-11T14:43:52.973Z,21.51
2023-04-11T14:46:19.963Z,21.00
2023-04-11T14:48:46.891Z,20.46
2023-04-11T14:51:15.203Z,19.88
2023-04-11T14:53:42.811Z,19.39
2023-04-11T14:56:09.894Z,19.02
2023-04-11T14:58:36.842Z,18.73
2023-04-11T15:01:04.101Z,18.85
2023-04-11T15:03:31.509Z,19.36
2023-04-11T15:05:59.424Z,19.90
2023-04-11T15:08:27.844Z,20.64
2023-04-11T15:10:54.942Z,20.91
2023-04-11T15:13:22.860Z,20.65
2023-04-11T15:15:50.026Z,20.33
2023-04-11T15:18:23.071Z,19.98
2023-04-11T15:20:50.381Z,19.69
2023-04-11T15:23:19.480Z,19.42
2023-04-11T15:25:53.172Z,19.12
2023-04-11T15:28:20.550Z,18.79
2023-04-11T15:30:53.236Z,18.31
2023-04-11T15:33:24.452Z,17.83
2023-04-11T15:35:56.802Z,17.44
2023-04-11T15:38:26.393Z,17.11
2023-04-11T15:40:59.256Z,16.89
2023-04-11T15:43:27.062Z,16.82
2023-04-11T15:45:54.787Z,16.99
2023-04-11T15:48:22.049Z,17.69
2023-04-11T15:50:49.124Z,18.37
2023-04-11T15:53:16.323Z,18.72
2023-04-11T15:55:44.003Z,18.84
2023-04-11T15:58:12.950Z,18.86
2023-04-11T16:00:42.151Z,18.86
2023-04-11T16:03:10.536Z,18.83
2023-04-11T16:05:41.142Z,18.83
2023-04-11T16:08:08.571Z,19.02
2023-04-11T16:10:35.608Z,19.22
2023-04-11T16:13:03.043Z,19.41
2023-04-11T16:15:32.275Z,19.36
2023-04-11T16:17:59.768Z,19.21
2023-04-11T16:20:26.762Z,18.97
2023-04-11T16:22:53.915Z,18.71
2023-04-11T16:25:21.021Z,18.44
2023-04-11T16:27:51.032Z,18.20
2023-04-11T16:30:18.367Z,18.06
2023-04-11T16:32:47.293Z,18.03
2023-04-11T16:35:14.584Z,18.06
2023-04-11T16:37:41.993Z,18.12
2023-04-11T16:40:11.647Z,18.07
2023-04-11T16:42:39.607Z,18.01
2023-04-11T16:45:08.943Z,17.92
2023-04-11T16:47:36.255Z,17.86
2023-04-11T16:50:05.920Z,17.76
2023-04-11T16:52:33.020Z,17.65
2023-04-11T16:54:59.920Z,17.50
2023-04-11T16:57:27.486Z,17.42
2023-04-11T16:59:54.597Z,17.40
2023-04-11T17:02:21.675Z,17.40
2023-04-11T17:04:48.655Z,17.42
2023-04-11T17:07:17.668Z,17.59
2023-04-11T17:09:48.115Z,17.79
2023-04-11T17:12:15.352Z,17.96
2023-04-11T17:14:42.304Z,18.07
2023-04-11T17:17:09.583Z,18.18
2023-04-11T17:19:36.696Z,18.21
2023-04-11T17:22:05.761Z,18.27
2023-04-11T17:24:33.998Z,18.24
2023-04-11T17:27:01.191Z,18.19
2023-04-11T17:29:29.004Z,18.15
2023-04-11T17:31:56.020Z,18.07
2023-04-11T17:34:22.914Z,17.98
2023-04-11T17:36:50.013Z,17.90
2023-04-11T17:39:17.962Z,17.78
2023-04-11T17:41:47.132Z,17.64
2023-04-11T17:44:14.045Z,17.46
2023-04-11T17:46:41.127Z,17.31
2023-04-11T17:49:08.294Z,17.18
2023-04-11T17:51:38.853Z,17.04
2023-04-11T17:54:08.412Z,16.88
2023-04-11T17:56:35.308Z,16.75
2023-04-11T17:59:03.579Z,16.66
2023-04-11T18:01:32.367Z,16.59
2023-04-11T18:04:01.718Z,16.52
2023-04-11T18:06:29.530Z,16.45
2023-04-11T18:08:56.640Z,16.38
2023-04-11T18:11:23.917Z,16.34
2023-04-11T18:13:51.124Z,16.26
2023-04-11T18:16:19.520Z,16.19
2023-04-11T18:18:47.986Z,16.13
2023-04-11T18:21:15.961Z,16.05
2023-04-11T18:23:42.939Z,16.01
2023-04-11T18:26:09.994Z,15.95
2023-04-11T18:28:36.991Z,15.88
2023-04-11T18:31:04.771Z,15.85
2023-04-11T18:33:33.711Z,15.80
2023-04-11T18:36:01.565Z,15.76
2023-04-11T18:38:28.684Z,15.73
2023-04-11T18:40:56.791Z,15.65
2023-04-11T18:43:24.741Z,15.55
2023-04-11T18:45:51.744Z,15.41
2023-04-11T18:48:18.962Z,15.26
2023-04-11T18:50:48.607Z,15.15
2023-04-11T18:53:16.154Z,15.06
2023-04-11T18:55:43.119Z,14.96
2023-04-11T18:58:11.926Z,14.86
2023-04-11T19:00:40.687Z,14.74
2023-04-11T19:03:15.174Z,14.61
2023-04-11T19:05:44.012Z,14.53
2023-04-11T19:08:12.525Z,14.45
2023-04-11T19:10:39.501Z,14.40
2023-04-11T19:13:06.842Z,14.35
2023-04-11T19:15:33.839Z,14.30
2023-04-11T19:18:01.623Z,14.24
2023-04-11T19:20:29.467Z,14.19
2023-04-11T19:22:56.505Z,14.16
2023-04-11T19:25:24.873Z,14.12
2023-04-11T19:27:52.018Z,14.11
2023-04-11T19:30:19.012Z,14.08
2023-04-11T19:32:47.572Z,14.09
2023-04-11T19:35:15.142Z,14.10
2023-04-11T19:37:42.500Z,14.12
2023-04-11T19:40:11.004Z,14.11
2023-04-11T19:42:40.197Z,14.09
2023-04-11T19:45:10.933Z,14.06
2023-04-11T19:47:39.619Z,14.02
2023-04-11T19:50:09.532Z,13.99
2023-04-11T19:52:36.537Z,13.99
2023-04-11T19:55:03.969Z,13.97
2023-04-11T19:57:31.223Z,13.96
2023-04-11T19:59:59.486Z,13.97
2023-04-11T20:02:26.514Z,13.97
2023-04-11T20:04:56.073Z,13.96
2023-04-11T20:07:23.216Z,13.95
2023-04-11T20:09:51.261Z,13.88
2023-04-11T20:12:18.367Z,13.80
2023-04-11T20:14:45.332Z,13.76
2023-04-11T20:17:13.569Z,13.67
2023-04-11T20:19:41.648Z,13.60
2023-04-11T20:22:10.784Z,13.57
2023-04-11T20:24:37.807Z,13.59
2023-04-11T20:27:04.702Z,13.61
2023-04-11T20:29:32.721Z,13.63
2023-04-11T20:31:59.891Z,13.64
2023-04-11T20:34:28.185Z,13.63
2023-04-11T20:36:55.867Z,13.61
2023-04-11T20:39:23.173Z,13.60
2023-04-11T20:41:52.221Z,13.58
2023-04-11T20:44:21.027Z,13.55
2023-04-11T20:46:47.994Z,13.54
2023-04-11T20:49:17.606Z,13.52
2023-04-11T20:51:46.620Z,13.50
2023-04-11T20:54:13.539Z,13.48
2023-04-11T20:56:42.694Z,13.48
2023-04-11T20:59:09.749Z,13.46
2023-04-11T21:01:36.765Z,13.44
2023-04-11T21:04:04.285Z,13.41
2023-04-11T21:06:32.022Z,13.39
2023-04-11T21:09:00.989Z,13.36
2023-04-11T21:11:27.907Z,13.32
2023-04-11T21:13:55.622Z,13.30
2023-04-11T21:16:23.078Z,13.25
2023-04-11T21:18:50.103Z,13.21
2023-04-11T21:21:17.136Z,13.17
2023-04-11T21:23:44.248Z,13.11
2023-04-11T21:26:12.630Z,13.01
2023-04-11T21:28:39.743Z,12.88
2023-04-11T21:31:07.041Z,12.78
2023-04-11T21:33:34.082Z,12.70
2023-04-11T21:36:01.502Z,12.64
2023-04-11T21:38:28.896Z,12.61
2023-04-11T21:40:57.920Z,12.58
2023-04-11T21:43:26.187Z,12.57
2023-04-11T21:45:53.099Z,12.56
2023-04-11T21:48:19.966Z,12.54
2023-04-11T21:50:48.181Z,12.54
2023-04-11T21:53:15.294Z,12.53
2023-04-11T21:55:46.084Z,12.48
2023-04-11T21:58:25.888Z,12.45
2023-04-11T22:00:57.245Z,12.38
2023-04-11T22:03:24.774Z,12.27
2023-04-11T22:05:52.347Z,12.15
2023-04-11T22:08:22.072Z,12.10
2023-04-11T22:10:50.481Z,12.09
2023-04-11T22:13:19.634Z,12.05
2023-04-11T22:15:58.426Z,12.09
2023-04-11T22:18:26.884Z,12.09
2023-04-11T22:20:54.368Z,12.06
2023-04-11T22:23:21.698Z,12.07
2023-04-11T22:25:57.684Z,11.99
2023-04-11T22:28:26.210Z,12.00
2023-04-11T22:30:53.962Z,11.94
2023-04-11T22:33:20.952Z,11.93
2023-04-11T22:35:49.304Z,11.95
2023-04-11T22:38:16.752Z,11.95
2023-04-11T22:40:43.740Z,11.96
2023-04-11T22:43:10.801Z,11.92
2023-04-11T22:45:37.948Z,11.89
2023-04-11T22:48:06.154Z,11.86
2023-04-11T22:50:37.793Z,11.85
2023-04-11T22:53:09.428Z,11.81
2023-04-11T22:55:36.656Z,11.67
2023-04-11T22:58:03.926Z,11.54
2023-04-11T23:00:31.309Z,11.45
2023-04-11T23:02:59.516Z,11.42
2023-04-11T23:05:26.801Z,11.35
2023-04-11T23:07:53.756Z,11.32
2023-04-11T23:10:22.000Z,11.35
2023-04-11T23:12:49.275Z,11.36
2023-04-11T23:15:17.233Z,11.45
2023-04-11T23:17:44.810Z,11.53
2023-04-11T23:20:13.466Z,11.56
2023-04-11T23:22:43.114Z,11.59
2023-04-11T23:25:14.983Z,11.60
2023-04-11T23:27:44.314Z,11.57
2023-04-11T23:30:14.773Z,11.51
2023-04-11T23:32:42.718Z,11.45
2023-04-11T23:35:10.635Z,11.46
2023-04-11T23:37:37.531Z,11.45
2023-04-11T23:40:10.432Z,11.46
2023-04-11T23:42:38.349Z,11.38
2023-04-11T23:45:08.902Z,11.36
2023-04-11T23:47:36.186Z,11.36
2023-04-11T23:50:04.455Z,11.37
2023-04-11T23:52:31.894Z,11.39
2023-04-11T23:54:58.883Z,11.45
2023-04-11T23:57:26.335Z,11.43
2023-04-11T23:59:53.637Z,11.44
